Hauptseite
METAR-TAF:

METAR-TAF

Flughäfen :

Flughafen Sunan

Pjöngjang, Nordkorea

Breite: 39-02N, Länge: 125-47E, Höhe: 36 m

METAR: fehlend

Zeit: 02:39 (18:09 UTC)

Prognose

Neuester Wetterbericht von vor 13 Stunden und 49 Minuten, um 04:20 UTC
Gültige Prognose vom 20 um 06 UTC bis 21 um 06 UTC
Wind 10 kt aus Südost, Böen bis zu 21 kt
Sichtweite: 3000 m
Geschlossene Wolkendecke in der Höhe von 2300 ft
Regen
Übergehend zu
vom 20 um 20 UTC bis 20 um 22 UTC
Wind 8 kt aus Nordwest
Sichtweite: 6000 m
Durchbrochene Bewölkung in der Höhe von 3300 ft
Übergehend zu
vom 21 um 03 UTC bis 21 um 05 UTC
Wind 12 kt aus Nord/Nordwest, Böen bis zu 23 kt

TAF: ZKPY 200420Z 2006/2106 14005G11MPS 3000 RA OVC023 TX14/2006Z TN04/2021Z BECMG 2020/2022 32004MPS 6000 BKN033 BECMG 2103/2105 34006G12MPS

Wetterbeobachtungen und Prognosen von mehr als 4000 Flughäfen (METAR und TAF Bericht).

Die verfügbaren Stationen werden durch gelbe und rote Markierungen auf der Karte dargestellt.

Führen Sie die Maus auf sie, um den Namen der Station zu sehen.

Darauf klicken, um die Beobachtung von Wetterbeobachtungen und Prognosen zu sehen.

Um die Karte zu ändern : klicken Sie auf den grünen Tasten mit einem schwarzen Kreuz Zum Vergrößern, auf den grünen Button mit einem Gedankenstrich zu verkleinern, oder auf die grünen Pfeile für benachbarte Karten.


METAR-TAF: